Lähistön asemien METAR-raportit

 

EFJY - Jyvaskyla (mil/C, Finland
Etäisyys Sääasemalta: E 40km
Päivitetty: 20/06/2021 22:20
Selkeätä
Selkeätä
 Tuulen suunta ELo
Tuuli: ELo 7 km/h
Lämpötila: 20°C
Kastepiste: 16°C
Ilmankosteus: 78%
Ilmanpaine: 1012 hPa
Yhteenveto: Selkeätä
Näkyvyys: Enemmän Kuin 10 km
2021/06/20 22:20 EFJY 202220Z AUTO 20004KT 170V230 CAVOK 20/16 Q1012
EFKU - Kuopio (mil/Civ), Finland
Etäisyys Sääasemalta: IKo 106km
Päivitetty: 20/06/2021 22:20
Selkeätä
Selkeätä
 Tuulen suunta L
Tuuli: L 6 km/h
Lämpötila: 20°C
Kastepiste: 17°C
Ilmankosteus: 83%
Ilmanpaine: 1012 hPa
Yhteenveto: Selkeätä
Näkyvyys: Enemmän Kuin 10 km
2021/06/20 22:20 EFKU 202220Z AUTO 27003KT CAVOK 20/17 Q1012
EFHA - Halli (fin-Afb), Finland
Etäisyys Sääasemalta: ELo 113km
Päivitetty: 20/06/2021 22:20
Selkeätä
Selkeätä
 Tuulen suunta E
Tuuli: E 13 km/h
Lämpötila: 22°C
Kastepiste: 16°C
Ilmankosteus: 69%
Ilmanpaine: 1012 hPa
Yhteenveto: Selkeätä
Näkyvyys: Enemmän Kuin 10 km
2021/06/20 22:20 EFHA 202220Z AUTO 19007KT CAVOK 22/16 Q1012
 
EFMI - Mikkeli, Finland
Etäisyys Sääasemalta: EKa 140km
Päivitetty: 20/06/2021 22:20
Selkeätä
Selkeätä
 Tuulen suunta varies
Tuuli: varies 4 km/h
Lämpötila: 22°C
Kastepiste: 15°C
Ilmankosteus: 65%
Ilmanpaine: 1013 hPa
Yhteenveto: Selkeätä
Näkyvyys: Enemmän Kuin 10 km
2021/06/20 22:20 EFMI 202220Z AUTO VRB02KT CAVOK 22/15 Q1013
EFSI - Seinajoki-Ilmajo, Finland
Etäisyys Sääasemalta: L 150km
Päivitetty: 20/06/2021 22:20
Selkeätä
Selkeätä
 Tuulen suunta Tyyntä
Tuuli: Tyyntä
Lämpötila: 15°C
Kastepiste: 14°C
Ilmankosteus: 94%
Ilmanpaine: 1011 hPa
Yhteenveto: Selkeätä
Näkyvyys: Enemmän Kuin 10 km
2021/06/20 22:20 EFSI 202220Z AUTO 00000KT CAVOK 15/14 Q1011
EFKK - Kruunupyy, Finland
Etäisyys Sääasemalta: Lu 170km
Päivitetty: 20/06/2021 22:20
Selkeätä
Selkeätä
 Tuulen suunta PKo
Tuuli: PKo 9 km/h
Lämpötila: 11°C
Kastepiste: 11°C
Ilmankosteus: 100%
Ilmanpaine: 1011 hPa
Yhteenveto: Selkeätä
Näkyvyys: Enemmän Kuin 10 km
2021/06/20 22:20 EFKK 202220Z AUTO 03005KT CAVOK 11/11 Q1011
 
EFSA - Savonlinna (aut), Finland
Etäisyys Sääasemalta: IKa 186km
Päivitetty: 20/06/2021 22:20
Selkeätä
Selkeätä
 Tuulen suunta ELo
Tuuli: ELo 13 km/h
Lämpötila: 22°C
Kastepiste: 15°C
Ilmankosteus: 65%
Ilmanpaine: 1014 hPa
Yhteenveto: Selkeätä
Näkyvyys: Enemmän Kuin 10 km
2021/06/20 22:20 EFSA 202220Z AUTO 21007KT CAVOK 22/15 Q1014
EFTP - Tampere/Pirkkala, Finland
Etäisyys Sääasemalta: Lo 187km
Päivitetty: 20/06/2021 22:20
Selkeätä
Selkeätä
 Tuulen suunta EKa
Tuuli: EKa 11 km/h
Lämpötila: 22°C
Kastepiste: 16°C
Ilmankosteus: 69%
Ilmanpaine: 1012 hPa
Yhteenveto: Selkeätä
Näkyvyys: Enemmän Kuin 10 km
2021/06/20 22:20 EFTP 202220Z AUTO 16006KT CAVOK 22/16 Q1012
EFKI - Kajaani, Finland
Etäisyys Sääasemalta: PKo 192km
Päivitetty: 20/06/2021 22:20

 Tuulen suunta varies
Tuuli: varies 2 km/h
Näkyvyys: 8 km
2021/06/20 22:20 EFKI 202220Z AUTO VRB01KT 8000 0800 R25/P2000D NCD 13/13 Q1013
 
EFJO - Joensuu, Finland
Etäisyys Sääasemalta: I 196km
Päivitetty: 20/06/2021 22:20
Selkeätä
Selkeätä
 Tuulen suunta ELo
Tuuli: ELo 7 km/h
Lämpötila: 23°C
Kastepiste: 15°C
Ilmankosteus: 61%
Ilmanpaine: 1013 hPa
Yhteenveto: Selkeätä
Näkyvyys: Enemmän Kuin 10 km
2021/06/20 22:20 EFJO 202220Z AUTO 21004KT 170V250 CAVOK 23/15 Q1013